Time;durP1;ratioP1;P1;durP2;ratioP2;P2;SDS_P1;SDS_P2;PMS_P1;PMS_P2;Temp;Humidity;BMP_temperature;BMP_pressure;BME280_temperature;BME280_humidity;BME280_pressure;Samples;Min_cycle;Max_cycle;Signal;HPM_P1;HPM_P2
2021/04/08 00:01:42;;;;;;;4.30;3.78;;;22.60;57.00;;;;;;5104615;28;20032;-34
2021/04/08 00:04:09;;;;;;;4.00;3.65;;;22.60;56.90;;;;;;5104555;28;20031;-34
2021/04/08 00:06:35;;;;;;;4.10;3.70;;;22.60;56.90;;;;;;5103327;28;20028;-34
2021/04/08 00:09:01;;;;;;;4.40;4.00;;;22.60;56.90;;;;;;5108013;28;20051;-34
2021/04/08 00:11:27;;;;;;;4.35;3.97;;;22.60;56.90;;;;;;5143893;27;20043;-34
2021/04/08 00:13:54;;;;;;;4.07;3.70;;;22.60;57.00;;;;;;5134652;27;20103;-34
2021/04/08 00:16:20;;;;;;;4.18;3.78;;;22.60;56.90;;;;;;5124463;28;20024;-34
2021/04/08 00:18:46;;;;;;;4.13;3.72;;;22.60;56.90;;;;;;5124563;28;20569;-34
2021/04/08 00:21:12;;;;;;;4.50;3.88;;;22.60;56.80;;;;;;5124638;28;20047;-34
2021/04/08 00:23:38;;;;;;;4.32;3.92;;;22.60;56.90;;;;;;5124490;28;20027;-34
2021/04/08 00:26:04;;;;;;;4.95;4.45;;;22.60;56.80;;;;;;5124147;28;20028;-34
2021/04/08 00:28:31;;;;;;;4.97;4.32;;;22.60;56.90;;;;;;5106250;28;20024;-34
2021/04/08 00:30:57;;;;;;;5.20;4.70;;;22.60;57.60;;;;;;5124390;28;20057;-34
2021/04/08 00:33:23;;;;;;;5.45;4.93;;;22.60;57.60;;;;;;5124424;28;20020;-34
2021/04/08 00:35:49;;;;;;;5.82;4.25;;;22.60;57.50;;;;;;5124320;28;20059;-34
2021/04/08 00:38:15;;;;;;;5.03;4.63;;;22.60;57.20;;;;;;5124333;28;20099;-34
2021/04/08 00:40:42;;;;;;;5.28;4.78;;;22.60;57.10;;;;;;5114163;27;20569;-34
2021/04/08 00:43:08;;;;;;;5.25;4.75;;;22.60;57.20;;;;;;5144805;27;20083;-34
2021/04/08 00:45:35;;;;;;;5.65;5.10;;;22.60;57.20;;;;;;5126122;27;20476;-34
2021/04/08 00:48:01;;;;;;;5.90;4.97;;;22.50;56.90;;;;;;5144875;27;20610;-35
2021/04/08 00:50:27;;;;;;;6.15;5.55;;;22.60;57.00;;;;;;5160554;27;20031;-34
2021/04/08 00:53:01;;;;;;;5.30;4.68;;;22.60;57.00;;;;;;5135566;27;20036;-34
2021/04/08 00:55:38;;;;;;;6.40;5.70;;;22.50;56.90;;;;;;5105745;28;20027;-34
2021/04/08 00:58:05;;;;;;;7.20;5.20;;;22.50;56.80;;;;;;5088905;28;20526;-34
2021/04/08 01:00:36;;;;;;;7.35;5.22;;;22.50;56.80;;;;;;5123909;28;20312;-34
2021/04/08 01:03:02;;;;;;;6.78;5.70;;;22.50;56.80;;;;;;5127375;27;20023;-34
2021/04/08 01:05:28;;;;;;;7.07;6.13;;;22.50;56.90;;;;;;5125416;27;20112;-34
2021/04/08 01:07:54;;;;;;;7.03;5.80;;;22.50;57.00;;;;;;5123486;28;20030;-33
2021/04/08 01:10:22;;;;;;;6.93;6.20;;;22.50;57.10;;;;;;5127898;27;20650;-34
2021/04/08 01:12:53;;;;;;;7.65;6.35;;;22.50;57.20;;;;;;5123897;28;20067;-34
2021/04/08 01:15:19;;;;;;;9.57;6.68;;;22.50;57.20;;;;;;5088705;28;20448;-35
2021/04/08 01:18:04;;;;;;;8.20;7.03;;;22.50;57.90;;;;;;5123417;28;20034;-34
2021/04/08 01:20:49;;;;;;;7.95;6.90;;;22.50;57.50;;;;;;5123345;28;20116;-33
2021/04/08 01:23:31;;;;;;;8.40;6.95;;;22.50;57.50;;;;;;5105765;27;20069;-33
2021/04/08 01:26:35;;;;;;;9.75;6.75;;;22.50;57.40;;;;;;5123529;28;20063;-34
2021/04/08 01:29:07;;;;;;;10.95;6.93;;;22.40;57.50;;;;;;5107909;28;20038;-34
2021/04/08 01:31:33;;;;;;;10.27;7.80;;;22.40;57.40;;;;;;5123283;28;20628;-34
2021/04/08 01:34:05;;;;;;;9.50;7.05;;;22.40;57.30;;;;;;5105077;28;20034;-34
2021/04/08 01:36:31;;;;;;;9.48;7.65;;;22.40;57.40;;;;;;5088392;28;20561;-34
2021/04/08 01:39:05;;;;;;;9.15;7.65;;;22.40;57.30;;;;;;5104728;28;20032;-34
2021/04/08 01:41:36;;;;;;;8.68;7.22;;;22.40;57.30;;;;;;5124592;27;20573;-34
2021/04/08 01:44:03;;;;;;;9.48;7.65;;;22.40;57.20;;;;;;5108385;28;20027;-34
2021/04/08 01:46:29;;;;;;;10.48;8.13;;;22.40;57.10;;;;;;5125417;27;20118;-34
2021/04/08 01:48:55;;;;;;;10.45;7.97;;;22.40;57.00;;;;;;5125340;28;20769;-35
2021/04/08 01:51:23;;;;;;;10.23;8.43;;;22.30;57.00;;;;;;5125508;28;20045;-34
2021/04/08 01:53:51;;;;;;;12.10;8.30;;;22.30;56.90;;;;;;5108548;28;20039;-34
2021/04/08 01:56:18;;;;;;;10.23;8.40;;;22.30;56.90;;;;;;5104886;28;20277;-34
2021/04/08 01:58:44;;;;;;;9.50;8.55;;;22.30;56.90;;;;;;5138583;28;20035;-35
2021/04/08 02:01:10;;;;;;;13.10;9.80;;;22.30;57.10;;;;;;5104973;28;20042;-34
2021/04/08 02:03:37;;;;;;;12.40;9.60;;;22.30;57.20;;;;;;5123177;28;20031;-34
2021/04/08 02:06:07;;;;;;;13.45;9.95;;;22.30;57.20;;;;;;5104842;28;20032;-34
2021/04/08 02:08:34;;;;;;;14.57;10.43;;;22.30;57.10;;;;;;5104504;28;20020;-34
2021/04/08 02:11:00;;;;;;;11.40;9.27;;;22.30;57.00;;;;;;5126247;28;20073;-34
2021/04/08 02:13:27;;;;;;;16.92;10.70;;;22.20;56.80;;;;;;5104470;28;20027;-34
2021/04/08 02:15:53;;;;;;;13.52;10.43;;;22.20;56.80;;;;;;5104437;28;20031;-34
2021/04/08 02:18:19;;;;;;;13.10;10.68;;;22.20;56.70;;;;;;5103929;28;20031;-34
2021/04/08 02:20:52;;;;;;;13.20;10.98;;;22.20;56.60;;;;;;5088004;28;20092;-34
2021/04/08 02:23:21;;;;;;;13.77;11.50;;;22.20;56.60;;;;;;5135436;28;20039;-34
2021/04/08 02:25:47;;;;;;;15.85;12.23;;;22.20;56.70;;;;;;5108128;28;20053;-34
2021/04/08 02:28:13;;;;;;;13.82;10.98;;;22.20;56.70;;;;;;5107746;28;20571;-33
2021/04/08 02:30:48;;;;;;;18.17;11.98;;;22.10;56.50;;;;;;5127719;27;20036;-34
2021/04/08 02:33:19;;;;;;;15.98;11.68;;;22.10;56.40;;;;;;5130237;27;20091;-34
2021/04/08 02:35:46;;;;;;;15.00;11.93;;;22.10;56.40;;;;;;5147365;27;20027;-34
2021/04/08 02:38:12;;;;;;;15.67;12.00;;;22.10;56.30;;;;;;5128647;27;20037;-34
2021/04/08 02:40:38;;;;;;;14.07;12.57;;;22.10;56.20;;;;;;5142357;27;20035;-34
2021/04/08 02:43:04;;;;;;;13.80;12.15;;;22.10;56.30;;;;;;5147313;27;20046;-34
2021/04/08 02:45:30;;;;;;;14.75;12.52;;;22.10;56.30;;;;;;5147131;27;20027;-34
2021/04/08 02:47:56;;;;;;;15.57;12.73;;;22.00;56.20;;;;;;5146817;27;20075;-34
2021/04/08 02:50:23;;;;;;;15.07;12.45;;;22.00;56.30;;;;;;5147113;27;20020;-34
2021/04/08 02:53:03;;;;;;;16.48;12.85;;;22.00;56.30;;;;;;5138533;27;20035;-34
2021/04/08 02:55:54;;;;;;;16.20;13.32;;;22.00;56.30;;;;;;5118239;27;20024;-33
2021/04/08 02:58:20;;;;;;;15.77;13.30;;;22.00;56.40;;;;;;5144920;27;20020;-34
2021/04/08 03:00:54;;;;;;;14.98;13.35;;;22.00;56.50;;;;;;5108016;28;20032;-34
2021/04/08 03:03:24;;;;;;;16.40;13.95;;;21.90;56.40;;;;;;5108057;28;20040;-34
2021/04/08 03:05:50;;;;;;;15.15;13.43;;;21.90;56.50;;;;;;5091747;28;20058;-34
2021/04/08 03:08:17;;;;;;;15.23;13.55;;;21.90;56.50;;;;;;5091016;28;20027;-34
2021/04/08 03:10:43;;;;;;;18.25;13.80;;;21.90;56.50;;;;;;5094739;28;20086;-34
2021/04/08 03:13:10;;;;;;;16.25;13.05;;;21.80;56.30;;;;;;5107428;28;20027;-34
2021/04/08 03:15:37;;;;;;;15.38;13.73;;;21.80;56.30;;;;;;5125935;28;20023;-34
2021/04/08 03:18:15;;;;;;;16.85;13.73;;;21.80;56.30;;;;;;5107890;28;20118;-34
2021/04/08 03:20:41;;;;;;;15.88;13.25;;;21.80;56.30;;;;;;5107839;27;20043;-34
2021/04/08 03:23:10;;;;;;;15.55;13.90;;;21.80;56.30;;;;;;5117219;28;20464;-34
2021/04/08 03:25:37;;;;;;;15.55;13.88;;;21.80;56.40;;;;;;5107485;28;20042;-34
2021/04/08 03:28:04;;;;;;;17.42;14.75;;;21.80;56.30;;;;;;5107399;28;20023;-34
2021/04/08 03:30:31;;;;;;;16.33;13.98;;;21.70;56.30;;;;;;5107171;28;20035;-34
2021/04/08 03:32:57;;;;;;;15.70;14.10;;;21.70;56.40;;;;;;5125663;28;20032;-34
2021/04/08 03:35:23;;;;;;;17.75;14.00;;;21.70;56.40;;;;;;5107545;28;20059;-34
2021/04/08 03:37:49;;;;;;;17.50;14.02;;;21.70;56.40;;;;;;5107366;28;20032;-34
2021/04/08 03:40:15;;;;;;;16.75;14.95;;;21.70;56.40;;;;;;5111448;27;20043;-34
2021/04/08 03:42:42;;;;;;;19.52;15.00;;;21.60;56.40;;;;;;5145805;27;20046;-33
2021/04/08 03:45:12;;;;;;;17.88;14.05;;;21.60;56.50;;;;;;5110455;27;20039;-34
2021/04/08 03:47:40;;;;;;;16.73;13.93;;;21.60;56.50;;;;;;5146201;27;20011;-33
2021/04/08 03:50:07;;;;;;;16.67;14.30;;;21.60;56.70;;;;;;5127585;27;20027;-33
2021/04/08 03:52:34;;;;;;;17.83;15.15;;;21.60;56.40;;;;;;5121277;28;20027;-34
2021/04/08 03:55:00;;;;;;;18.23;14.88;;;21.60;56.50;;;;;;5107098;28;20057;-34
2021/04/08 03:57:26;;;;;;;17.52;15.02;;;21.50;56.50;;;;;;5123830;27;20027;-33
2021/04/08 03:59:52;;;;;;;16.77;14.85;;;21.50;56.60;;;;;;5106286;28;20061;-34
2021/04/08 04:02:18;;;;;;;16.38;14.63;;;21.50;56.50;;;;;;5107095;28;20695;-34
2021/04/08 04:04:44;;;;;;;17.08;14.88;;;21.50;56.60;;;;;;5123854;28;20031;-34
2021/04/08 04:07:11;;;;;;;16.98;15.18;;;21.50;56.60;;;;;;5123836;28;20019;-33
2021/04/08 04:09:37;;;;;;;16.85;14.95;;;21.50;56.60;;;;;;5094292;28;20122;-34
2021/04/08 04:12:04;;;;;;;16.45;14.70;;;21.50;56.60;;;;;;5084175;28;20504;-34
2021/04/08 04:14:30;;;;;;;15.93;14.38;;;21.40;56.60;;;;;;5082746;28;20047;-35
2021/04/08 04:16:57;;;;;;;16.73;15.00;;;21.40;56.70;;;;;;5084165;28;20744;-33
2021/04/08 04:19:23;;;;;;;16.77;15.05;;;21.40;56.60;;;;;;5082291;28;20036;-33
2021/04/08 04:21:50;;;;;;;18.40;15.70;;;21.40;56.70;;;;;;5084163;28;20028;-33
2021/04/08 04:24:16;;;;;;;17.20;15.27;;;21.30;56.70;;;;;;5064175;28;20040;-34
2021/04/08 04:26:42;;;;;;;17.27;15.48;;;21.30;56.70;;;;;;5095950;28;20028;-34
2021/04/08 04:29:11;;;;;;;16.63;14.93;;;21.30;56.70;;;;;;5063649;28;20092;-34
2021/04/08 04:31:38;;;;;;;17.38;15.38;;;21.30;56.70;;;;;;5063895;28;20029;-33
2021/04/08 04:34:07;;;;;;;17.58;15.27;;;21.30;56.70;;;;;;5095924;28;20025;-34
2021/04/08 04:36:34;;;;;;;17.50;15.70;;;21.30;56.80;;;;;;5063796;28;20048;-34
2021/04/08 04:39:01;;;;;;;17.95;15.73;;;21.20;56.80;;;;;;5095830;28;20033;-35
2021/04/08 04:41:27;;;;;;;19.33;16.10;;;21.20;56.80;;;;;;5082267;28;20080;-34
2021/04/08 04:43:53;;;;;;;17.83;15.98;;;21.20;56.80;;;;;;5083667;28;20729;-34
2021/04/08 04:46:19;;;;;;;19.10;16.88;;;21.20;56.80;;;;;;5083617;28;20036;-34
2021/04/08 04:48:45;;;;;;;17.58;15.77;;;21.20;56.80;;;;;;5082231;28;20027;-34
2021/04/08 04:51:12;;;;;;;17.98;16.10;;;21.20;56.90;;;;;;5083221;28;20025;-34
2021/04/08 04:53:38;;;;;;;18.90;15.50;;;21.20;56.80;;;;;;5082889;28;20013;-33
2021/04/08 04:56:04;;;;;;;17.50;15.65;;;21.10;56.80;;;;;;5083292;28;20092;-34
2021/04/08 04:58:30;;;;;;;17.98;16.13;;;21.10;56.80;;;;;;5083200;28;20028;-34
2021/04/08 05:00:57;;;;;;;17.33;15.55;;;21.10;56.90;;;;;;5082813;28;20051;-33
2021/04/08 05:03:23;;;;;;;19.65;15.88;;;21.10;57.00;;;;;;5082949;28;20021;-34
2021/04/08 05:05:49;;;;;;;17.92;16.13;;;21.00;56.90;;;;;;5083550;28;20032;-33
2021/04/08 05:08:15;;;;;;;18.25;16.27;;;21.00;56.90;;;;;;5083131;28;20016;-33
2021/04/08 05:10:41;;;;;;;18.60;16.10;;;21.00;56.90;;;;;;5095865;28;20048;-33
2021/04/08 05:13:07;;;;;;;19.20;16.25;;;21.00;57.00;;;;;;5103470;28;20028;-33
2021/04/08 05:15:33;;;;;;;17.88;15.98;;;21.00;57.00;;;;;;5113616;27;20051;-34
2021/04/08 05:18:00;;;;;;;19.10;16.60;;;20.90;57.00;;;;;;5123802;28;20095;-33
2021/04/08 05:20:26;;;;;;;18.05;16.15;;;20.90;56.90;;;;;;5123116;28;20051;-34
2021/04/08 05:22:54;;;;;;;18.80;16.80;;;20.90;57.00;;;;;;5123530;28;20053;-33
2021/04/08 05:25:20;;;;;;;18.02;16.23;;;20.90;57.00;;;;;;5123461;28;20035;-34
2021/04/08 05:27:46;;;;;;;18.83;16.83;;;20.90;57.00;;;;;;5123504;28;20031;-33
2021/04/08 05:30:13;;;;;;;19.23;16.48;;;20.90;57.00;;;;;;5123100;28;20016;-33
2021/04/08 05:32:39;;;;;;;13.03;11.67;;;20.90;57.00;;;;;;5123604;28;20111;-34
2021/04/08 05:35:06;;;;;;;18.02;16.08;;;20.80;57.00;;;;;;5123330;28;20028;-33
2021/04/08 05:37:32;;;;;;;18.80;16.20;;;20.80;57.00;;;;;;5123335;28;20031;-33
2021/04/08 05:39:58;;;;;;;18.50;16.48;;;20.80;57.10;;;;;;5130074;27;20119;-33
2021/04/08 05:42:24;;;;;;;18.57;15.77;;;20.70;57.10;;;;;;5143645;27;20027;-33
2021/04/08 05:44:51;;;;;;;18.25;16.25;;;20.80;57.10;;;;;;5143566;27;20966;-33
2021/04/08 05:47:17;;;;;;;19.33;17.05;;;20.70;57.00;;;;;;5143844;27;20081;-33
2021/04/08 05:49:43;;;;;;;18.38;16.55;;;20.70;57.10;;;;;;5143870;27;20026;-33
2021/04/08 05:52:09;;;;;;;18.58;16.65;;;20.70;57.20;;;;;;5140830;27;20094;-33
2021/04/08 05:54:35;;;;;;;17.65;15.77;;;20.70;57.10;;;;;;5123399;28;20026;-33
2021/04/08 05:57:01;;;;;;;18.67;16.55;;;20.70;57.10;;;;;;5122981;28;20516;-35
2021/04/08 05:59:28;;;;;;;18.85;16.80;;;20.60;57.10;;;;;;5122960;28;20047;-33
2021/04/08 06:01:54;;;;;;;17.90;16.02;;;20.60;57.20;;;;;;5123033;28;20028;-33
2021/04/08 06:04:20;;;;;;;18.55;16.55;;;20.60;57.10;;;;;;5123920;28;20114;-36
2021/04/08 06:06:46;;;;;;;18.23;16.35;;;20.60;57.20;;;;;;5127539;28;20020;-34
2021/04/08 06:09:12;;;;;;;18.67;16.67;;;20.60;57.10;;;;;;5122611;28;20023;-34
2021/04/08 06:11:38;;;;;;;18.02;16.13;;;20.60;57.20;;;;;;5126686;28;20031;-33
2021/04/08 06:14:04;;;;;;;18.55;16.60;;;20.60;57.20;;;;;;5127048;28;20032;-33
2021/04/08 06:16:31;;;;;;;18.73;16.75;;;20.60;57.40;;;;;;5127207;28;20046;-33
2021/04/08 06:18:57;;;;;;;19.17;17.17;;;20.60;57.20;;;;;;5126981;27;20091;-33
2021/04/08 06:21:23;;;;;;;17.60;15.75;;;20.50;57.20;;;;;;5126857;28;20035;-33
2021/04/08 06:23:52;;;;;;;18.17;16.27;;;20.50;57.30;;;;;;5110304;28;20024;-33
2021/04/08 06:26:18;;;;;;;18.20;16.30;;;20.50;57.30;;;;;;5106585;28;20028;-33
2021/04/08 06:28:44;;;;;;;18.30;16.02;;;20.50;57.30;;;;;;5106508;28;20032;-33
2021/04/08 06:31:10;;;;;;;18.33;16.42;;;20.40;57.30;;;;;;5106358;28;20035;-34
2021/04/08 06:33:37;;;;;;;18.08;16.17;;;20.40;57.20;;;;;;5106741;28;20548;-33
2021/04/08 06:36:03;;;;;;;17.27;15.55;;;20.40;57.30;;;;;;5106065;28;20035;-33
2021/04/08 06:38:29;;;;;;;17.77;15.87;;;20.40;57.30;;;;;;5106363;28;20020;-33
2021/04/08 06:40:55;;;;;;;17.52;15.68;;;20.40;57.40;;;;;;5136138;27;20275;-33
2021/04/08 06:43:22;;;;;;;17.50;15.75;;;20.40;57.40;;;;;;5147205;27;20027;-33
2021/04/08 06:45:49;;;;;;;18.85;16.75;;;20.30;57.40;;;;;;5147020;27;20027;-33
2021/04/08 06:48:20;;;;;;;19.63;16.52;;;20.30;57.40;;;;;;5147228;27;20027;-33
2021/04/08 06:50:47;;;;;;;17.33;15.52;;;20.30;57.30;;;;;;5140872;27;20031;-33
2021/04/08 06:53:14;;;;;;;18.98;16.65;;;20.30;57.40;;;;;;5107916;28;20035;-33
2021/04/08 06:55:42;;;;;;;17.98;16.10;;;20.30;57.50;;;;;;5108193;28;20035;-33
2021/04/08 06:58:08;;;;;;;17.63;15.82;;;20.30;57.40;;;;;;5107841;28;20015;-33
2021/04/08 07:00:34;;;;;;;18.67;16.70;;;20.30;57.50;;;;;;5114677;27;20062;-33
2021/04/08 07:03:03;;;;;;;13.40;12.03;;;20.20;57.40;;;;;;5146477;27;20027;-33
2021/04/08 07:05:29;;;;;;;18.02;16.13;;;20.20;57.50;;;;;;5128405;27;20033;-33
2021/04/08 07:07:55;;;;;;;19.17;17.10;;;20.20;57.50;;;;;;5146871;27;20027;-33
2021/04/08 07:10:21;;;;;;;18.25;16.35;;;20.20;57.60;;;;;;5136339;27;20052;-33
2021/04/08 07:12:50;;;;;;;19.20;16.25;;;20.20;57.60;;;;;;5129045;27;20046;-33
2021/04/08 07:15:18;;;;;;;18.85;16.95;;;20.20;57.60;;;;;;5125505;28;20032;-33
2021/04/08 07:17:44;;;;;;;18.17;16.27;;;20.20;57.70;;;;;;5125922;28;20027;-33
2021/04/08 07:20:10;;;;;;;19.13;15.63;;;20.10;57.50;;;;;;5090683;28;20043;-33
2021/04/08 07:22:36;;;;;;;18.50;16.60;;;20.10;57.60;;;;;;5125650;28;20027;-33
2021/04/08 07:25:04;;;;;;;18.17;16.15;;;20.10;57.60;;;;;;5125735;28;20023;-33
2021/04/08 07:27:33;;;;;;;18.77;16.27;;;20.00;57.60;;;;;;5107203;28;20023;-33
2021/04/08 07:30:00;;;;;;;18.77;16.30;;;20.00;57.60;;;;;;5125605;28;20534;-37
2021/04/08 07:32:31;;;;;;;17.70;15.93;;;20.00;57.60;;;;;;5125624;28;20035;-34
2021/04/08 07:35:18;;;;;;;18.10;16.27;;;20.00;57.70;;;;;;5125593;28;20031;-34
2021/04/08 07:38:05;;;;;;;18.25;16.35;;;20.00;57.60;;;;;;5125672;28;20019;-34
2021/04/08 07:40:31;;;;;;;17.75;15.95;;;20.00;57.90;;;;;;5114330;28;20073;-33
2021/04/08 07:42:59;;;;;;;18.23;16.20;;;20.00;57.70;;;;;;5125191;28;20594;-34
2021/04/08 07:45:32;;;;;;;18.15;16.25;;;20.00;57.80;;;;;;5090181;28;20137;-34
2021/04/08 07:48:02;;;;;;;17.75;15.93;;;20.00;57.90;;;;;;5108064;28;20037;-34
2021/04/08 07:50:29;;;;;;;19.23;16.98;;;19.90;57.80;;;;;;5107011;28;20031;-33
2021/04/08 07:52:55;;;;;;;19.33;16.95;;;19.90;57.80;;;;;;5125041;28;20043;-33
2021/04/08 07:55:30;;;;;;;19.33;16.67;;;19.90;57.90;;;;;;5125348;28;20046;-33
2021/04/08 07:58:19;;;;;;;18.40;16.50;;;19.90;57.90;;;;;;5125166;28;20053;-33
2021/04/08 08:00:45;;;;;;;;;;;19.90;57.90;;;;;;5125464;28;20028;-34
2021/04/08 08:03:23;;;;;;;17.92;15.95;;;19.80;57.80;;;;;;5124977;28;19914;-33
2021/04/08 08:05:50;;;;;;;18.05;16.25;;;19.80;57.80;;;;;;5125163;28;20027;-33
2021/04/08 08:08:17;;;;;;;18.20;16.30;;;19.80;57.90;;;;;;5125028;28;20117;-33
2021/04/08 08:11:10;;;;;;;18.65;16.65;;;19.80;58.00;;;;;;5120155;28;20051;-33
2021/04/08 08:13:38;;;;;;;17.95;16.15;;;19.80;58.20;;;;;;5116131;28;20057;-33
2021/04/08 08:16:05;;;;;;;18.95;16.92;;;19.80;57.90;;;;;;5124502;28;20027;-33
2021/04/08 08:18:32;;;;;;;17.80;15.90;;;19.80;58.00;;;;;;5124137;28;20024;-33
2021/04/08 08:21:13;;;;;;;18.70;16.70;;;19.80;58.00;;;;;;5124569;28;20055;-33
2021/04/08 08:23:43;;;;;;;18.60;16.67;;;19.80;57.90;;;;;;5109144;28;20026;-33
2021/04/08 08:26:39;;;;;;;18.70;16.65;;;19.70;58.10;;;;;;5104557;28;20023;-33
2021/04/08 08:29:11;;;;;;;18.23;16.33;;;19.70;58.00;;;;;;5094572;28;20036;-33
2021/04/08 08:32:00;;;;;;;18.65;16.63;;;19.70;58.00;;;;;;5104105;28;20028;-33
2021/04/08 08:34:39;;;;;;;18.45;16.55;;;19.60;58.10;;;;;;5103736;28;20024;-33
2021/04/08 08:37:09;;;;;;;19.00;16.85;;;19.60;58.10;;;;;;5104110;28;20024;-33
2021/04/08 08:39:43;;;;;;;18.15;16.25;;;19.60;58.20;;;;;;5093073;27;20046;-33
2021/04/08 08:42:12;;;;;;;18.77;16.80;;;19.60;58.10;;;;;;5126301;27;20090;-33
2021/04/08 08:44:39;;;;;;;18.85;16.63;;;19.60;58.20;;;;;;5136063;27;20028;-33
2021/04/08 08:47:07;;;;;;;17.45;15.65;;;19.60;58.20;;;;;;5106019;28;20088;-33
2021/04/08 08:49:43;;;;;;;19.27;17.27;;;19.60;58.10;;;;;;5117087;27;20019;-33
2021/04/08 08:52:11;;;;;;;17.77;15.95;;;19.50;58.20;;;;;;5107290;27;20072;-33
2021/04/08 08:54:37;;;;;;;;;;;19.50;58.10;;;;;;5124294;28;20031;-33
2021/04/08 08:57:04;;;;;;;17.90;16.00;;;19.50;58.20;;;;;;5124045;28;19971;-34
2021/04/08 08:59:30;;;;;;;17.73;15.82;;;19.50;58.30;;;;;;5123923;28;20035;-34
2021/04/08 09:01:57;;;;;;;18.13;16.23;;;19.50;58.30;;;;;;5123941;28;20032;-33
2021/04/08 09:04:23;;;;;;;17.80;15.90;;;19.40;58.20;;;;;;5122490;28;20072;-33
2021/04/08 09:06:50;;;;;;;17.27;15.55;;;19.40;58.30;;;;;;5127690;27;20036;-33
2021/04/08 09:09:17;;;;;;;18.02;16.13;;;19.40;58.40;;;;;;5106329;27;20047;-33
2021/04/08 09:11:44;;;;;;;18.77;16.13;;;19.40;58.20;;;;;;5141062;27;20070;-33
2021/04/08 09:14:13;;;;;;;18.40;16.58;;;19.40;58.30;;;;;;5144161;27;20034;-33
2021/04/08 09:16:44;;;;;;;17.75;15.85;;;19.40;58.30;;;;;;5144303;27;20508;-33
2021/04/08 09:19:10;;;;;;;18.77;16.45;;;19.40;58.30;;;;;;5122473;28;20043;-33
2021/04/08 09:21:44;;;;;;;18.65;16.65;;;19.30;58.30;;;;;;5123748;28;20051;-33
2021/04/08 09:24:14;;;;;;;17.80;15.95;;;19.30;58.40;;;;;;5105038;28;20103;-34
2021/04/08 09:26:41;;;;;;;17.45;15.60;;;19.30;58.50;;;;;;5123573;28;20028;-33
2021/04/08 09:29:11;;;;;;;18.02;16.13;;;19.30;58.50;;;;;;5105244;28;20104;-33
2021/04/08 09:31:37;;;;;;;18.10;16.17;;;19.30;58.40;;;;;;5105688;28;20057;-33
2021/04/08 09:34:04;;;;;;;17.83;15.95;;;19.30;58.30;;;;;;5105036;28;20027;-33
2021/04/08 09:36:34;;;;;;;17.50;15.70;;;19.30;58.40;;;;;;5105139;28;20528;-33
2021/04/08 09:39:00;;;;;;;18.40;16.02;;;19.30;58.40;;;;;;5123129;28;20035;-33
2021/04/08 09:41:43;;;;;;;17.40;15.60;;;19.20;58.60;;;;;;5142671;27;20056;-33
2021/04/08 09:44:10;;;;;;;18.20;16.30;;;19.20;58.40;;;;;;5143716;27;20055;-33
2021/04/08 09:46:40;;;;;;;16.85;15.05;;;19.20;58.40;;;;;;5143823;27;20027;-33
2021/04/08 09:49:07;;;;;;;18.00;16.10;;;19.20;58.50;;;;;;5136289;27;20035;-33
2021/04/08 09:51:45;;;;;;;18.77;16.53;;;19.20;58.50;;;;;;5123440;28;20079;-34
2021/04/08 09:54:12;;;;;;;;;;;19.20;58.40;;;;;;5123330;28;20202;-33
2021/04/08 09:56:55;;;;;;;17.05;15.23;;;19.10;58.40;;;;;;5123247;28;19911;-34
2021/04/08 09:59:22;;;;;;;17.73;15.90;;;19.10;58.60;;;;;;5105483;28;20103;-33
2021/04/08 10:01:49;;;;;;;18.08;16.23;;;19.10;58.70;;;;;;5122962;28;20049;-33
2021/04/08 10:04:23;;;;;;;18.07;14.83;;;19.10;58.70;;;;;;5122690;28;20043;-33
2021/04/08 10:07:03;;;;;;;19.05;16.63;;;19.10;58.90;;;;;;5123128;28;20503;-33
2021/04/08 10:09:30;;;;;;;17.23;15.45;;;19.10;58.40;;;;;;5125781;28;20043;-33
2021/04/08 10:11:56;;;;;;;17.02;15.23;;;19.10;58.60;;;;;;5143592;28;20074;-33
2021/04/08 10:14:25;;;;;;;18.30;16.00;;;19.00;58.60;;;;;;5143497;28;20066;-33
2021/04/08 10:17:11;;;;;;;17.77;15.90;;;19.00;58.60;;;;;;5125236;28;20476;-33
2021/04/08 10:19:39;;;;;;;17.17;15.48;;;19.00;58.50;;;;;;5131458;28;20028;-34
2021/04/08 10:22:06;;;;;;;17.88;15.98;;;19.00;58.80;;;;;;5116187;28;20024;-33
2021/04/08 10:24:40;;;;;;;16.95;15.18;;;19.00;58.70;;;;;;5102326;28;20384;-33
2021/04/08 10:27:26;;;;;;;18.08;16.20;;;19.00;58.70;;;;;;5102464;28;20035;-33
2021/04/08 10:29:52;;;;;;;17.75;15.88;;;19.00;58.70;;;;;;5102430;28;20039;-33
2021/04/08 10:32:35;;;;;;;17.27;15.43;;;19.00;58.80;;;;;;5102623;28;20024;-33
2021/04/08 10:35:01;;;;;;;18.33;16.42;;;19.00;58.80;;;;;;5102100;28;20190;-33
2021/04/08 10:37:28;;;;;;;17.23;15.53;;;18.90;58.80;;;;;;5102455;28;20035;-33
2021/04/08 10:39:54;;;;;;;17.53;15.70;;;18.90;58.80;;;;;;5115045;28;20038;-33
2021/04/08 10:42:22;;;;;;;18.55;15.73;;;18.90;58.80;;;;;;5143244;28;20019;-33
2021/04/08 10:44:52;;;;;;;16.98;15.23;;;18.90;58.70;;;;;;5143036;28;20039;-33
2021/04/08 10:47:24;;;;;;;17.65;15.82;;;18.90;58.70;;;;;;5122521;28;20036;-33
2021/04/08 10:49:55;;;;;;;16.58;14.98;;;18.90;58.80;;;;;;5129206;28;20494;-33
2021/04/08 10:52:27;;;;;;;17.38;15.57;;;18.90;58.90;;;;;;5126316;28;20016;-33
2021/04/08 10:55:00;;;;;;;17.65;15.77;;;18.80;58.90;;;;;;5126259;28;20028;-33
2021/04/08 10:57:27;;;;;;;18.05;15.68;;;18.90;59.00;;;;;;5125657;27;20024;-33
2021/04/08 10:59:54;;;;;;;17.80;16.00;;;18.80;58.80;;;;;;5126488;28;20032;-33
2021/04/08 11:02:29;;;;;;;16.60;14.90;;;18.80;58.80;;;;;;5126409;28;20035;-33
2021/04/08 11:04:58;;;;;;;17.23;15.43;;;18.80;58.90;;;;;;5126002;28;20050;-33
2021/04/08 11:07:25;;;;;;;17.45;15.65;;;18.80;58.80;;;;;;5126300;28;20031;-33
2021/04/08 11:09:51;;;;;;;16.98;15.13;;;18.80;58.90;;;;;;5109658;27;20043;-33
2021/04/08 11:12:25;;;;;;;17.48;15.50;;;18.80;59.00;;;;;;5125871;27;20107;-34
2021/04/08 11:14:58;;;;;;;17.08;15.23;;;18.70;58.90;;;;;;5125769;28;20028;-33
2021/04/08 11:17:26;;;;;;;17.02;14.65;;;18.70;58.80;;;;;;5110304;28;20031;-33
2021/04/08 11:19:54;;;;;;;17.05;15.25;;;18.70;58.90;;;;;;5121335;27;20039;-33
2021/04/08 11:22:32;;;;;;;16.60;14.90;;;18.70;59.00;;;;;;5123725;28;20020;-33
2021/04/08 11:24:58;;;;;;;16.83;15.02;;;18.70;58.90;;;;;;5125800;28;20027;-33
2021/04/08 11:27:27;;;;;;;16.08;14.38;;;18.70;59.10;;;;;;5107572;28;20043;-33
2021/04/08 11:29:53;;;;;;;15.80;14.20;;;18.70;58.90;;;;;;5107668;28;20081;-33
2021/04/08 11:32:19;;;;;;;17.05;15.32;;;18.70;59.10;;;;;;5107395;28;20492;-33
2021/04/08 11:34:47;;;;;;;17.25;15.32;;;18.70;59.10;;;;;;5125727;28;20045;-36
2021/04/08 11:37:33;;;;;;;16.83;15.00;;;18.70;59.20;;;;;;5125324;28;20027;-33
2021/04/08 11:40:00;;;;;;;16.15;14.23;;;18.70;59.00;;;;;;5125457;28;20046;-33
2021/04/08 11:42:35;;;;;;;16.95;15.15;;;18.60;59.10;;;;;;5125322;28;20023;-33
2021/04/08 11:45:20;;;;;;;16.75;15.05;;;18.60;59.00;;;;;;5125588;28;20020;-33
2021/04/08 11:48:06;;;;;;;16.27;14.57;;;18.60;59.00;;;;;;5125343;28;20019;-33
2021/04/08 11:50:37;;;;;;;15.68;13.98;;;18.60;59.00;;;;;;5109910;28;20030;-33
2021/04/08 11:53:07;;;;;;;17.02;15.20;;;18.60;59.10;;;;;;5115182;28;20032;-33
2021/04/08 11:55:34;;;;;;;16.00;14.27;;;18.60;59.10;;;;;;5104665;28;20042;-33
2021/04/08 11:58:00;;;;;;;;;;;18.60;59.00;;;;;;5105247;28;20028;-33
2021/04/08 12:00:27;;;;;;;16.38;14.65;;;18.60;59.10;;;;;;5104643;28;19915;-33
2021/04/08 12:02:53;;;;;;;16.65;14.40;;;18.60;59.20;;;;;;5104761;28;20020;-33
2021/04/08 12:05:20;;;;;;;17.45;15.65;;;18.60;59.20;;;;;;5086148;28;20024;-33
2021/04/08 12:07:50;;;;;;;16.10;14.37;;;18.50;59.10;;;;;;5104337;28;20045;-33
2021/04/08 12:10:30;;;;;;;16.23;14.52;;;18.50;59.10;;;;;;5104383;28;20051;-33
2021/04/08 12:13:01;;;;;;;17.00;14.43;;;18.50;59.10;;;;;;5087450;28;20564;-33
2021/04/08 12:15:45;;;;;;;16.63;14.93;;;18.50;59.20;;;;;;5123443;28;20114;-33
2021/04/08 12:18:18;;;;;;;15.77;14.15;;;18.50;59.20;;;;;;5124820;28;20031;-33
2021/04/08 12:20:48;;;;;;;15.95;14.30;;;18.50;59.20;;;;;;5130052;27;20059;-33
2021/04/08 12:23:15;;;;;;;15.73;14.10;;;18.50;59.30;;;;;;5133415;27;20046;-33
2021/04/08 12:25:46;;;;;;;15.70;14.02;;;18.50;59.20;;;;;;5124659;28;20042;-33
2021/04/08 12:28:12;;;;;;;16.20;14.60;;;18.50;59.20;;;;;;5124678;28;20036;-33
2021/04/08 12:30:59;;;;;;;15.60;14.07;;;18.50;59.10;;;;;;5124609;28;20055;-33
2021/04/08 12:33:30;;;;;;;16.27;14.60;;;18.50;59.10;;;;;;5124475;28;20091;-33
2021/04/08 12:36:07;;;;;;;16.52;14.68;;;18.50;59.20;;;;;;5124178;28;20080;-33
2021/04/08 12:38:33;;;;;;;15.32;13.73;;;18.50;59.20;;;;;;5124522;28;20020;-33
2021/04/08 12:41:00;;;;;;;11.52;9.63;;;18.50;59.20;;;;;;5108852;28;20042;-33